Time;durP1;ratioP1;P1;durP2;ratioP2;P2;SDS_P1;SDS_P2;PMS_P1;PMS_P2;Temp;Humidity;BMP_temperature;BMP_pressure;BME280_temperature;BME280_humidity;BME280_pressure;Samples;Min_cycle;Max_cycle;Signal;HPM_P1;HPM_P2
2022/03/05 00:00:53;;;;;;;4.42;3.10;;;;;;;-0.05;63.56;100175.54;1712009;83;21077;-64
2022/03/05 00:03:21;;;;;;;2.83;2.63;;;;;;;-0.03;63.49;100173.63;1711993;83;21538;-66
2022/03/05 00:05:48;;;;;;;3.53;3.10;;;;;;;-0.08;63.57;100173.16;1712034;83;21537;-62
2022/03/05 00:08:14;;;;;;;2.77;2.57;;;;;;;-0.04;63.45;100178.50;1711829;83;21545;-65
2022/03/05 00:10:43;;;;;;;2.47;2.27;;;;;;;-0.09;63.35;100172.81;1711906;83;21836;-65
2022/03/05 00:13:10;;;;;;;2.90;2.60;;;;;;;-0.10;63.37;100173.27;1711783;83;21660;-66
2022/03/05 00:15:37;;;;;;;2.93;2.73;;;;;;;-0.11;63.30;100176.86;1711991;83;21589;-64
2022/03/05 00:18:04;;;;;;;6.03;2.67;;;;;;;-0.12;63.19;100172.56;1711768;83;21089;-65
2022/03/05 00:20:32;;;;;;;3.47;2.60;;;;;;;-0.08;63.10;100176.59;1712002;83;21062;-65
2022/03/05 00:22:59;;;;;;;3.13;2.63;;;;;;;-0.04;62.97;100174.11;1715917;82;22043;-64
2022/03/05 00:25:25;;;;;;;3.35;2.30;;;;;;;-0.06;62.91;100180.41;1712282;83;21053;-65
2022/03/05 00:27:53;;;;;;;;;;;;;;;-0.05;62.56;100174.23;1715022;83;21030;-68
2022/03/05 00:30:22;;;;;;;3.40;1.67;;;;;;;-0.07;62.56;100173.52;1712201;83;20127;-66
2022/03/05 00:32:50;;;;;;;2.67;2.07;;;;;;;-0.09;61.95;100169.71;1712376;83;21592;-67
2022/03/05 00:35:17;;;;;;;2.03;1.33;;;;;;;-0.10;61.88;100167.20;1711250;83;21037;-66
2022/03/05 00:37:44;;;;;;;3.80;1.67;;;;;;;-0.14;61.58;100168.42;1712219;83;21553;-63
2022/03/05 00:40:12;;;;;;;2.17;1.97;;;;;;;-0.18;61.85;100166.52;1711896;83;21014;-67
2022/03/05 00:42:38;;;;;;;1.60;1.47;;;;;;;-0.30;61.95;100159.63;1712368;83;21053;-65
2022/03/05 00:45:07;;;;;;;3.15;1.82;;;;;;;-0.31;62.26;100165.35;1711981;83;21034;-66
2022/03/05 00:47:37;;;;;;;2.37;2.10;;;;;;;-0.29;62.44;100163.44;1724099;83;20979;-65
2022/03/05 00:50:06;;;;;;;1.87;1.77;;;;;;;-0.28;62.62;100165.60;1717108;82;21017;-64
2022/03/05 00:52:35;;;;;;;2.57;2.33;;;;;;;-0.25;62.67;100160.92;1716128;82;21510;-65
2022/03/05 00:55:03;;;;;;;1.97;1.87;;;;;;;-0.19;62.64;100168.77;1723228;83;21007;-64
2022/03/05 00:57:30;;;;;;;2.27;1.83;;;;;;;-0.17;62.65;100164.27;1724392;83;21019;-63
2022/03/05 00:59:57;;;;;;;2.80;1.80;;;;;;;-0.12;62.58;100167.33;1721496;83;21103;-65
2022/03/05 01:02:24;;;;;;;4.83;2.27;;;;;;;-0.09;62.49;100170.20;1706061;83;21093;-65
2022/03/05 01:04:50;;;;;;;4.12;2.22;;;;;;;-0.01;62.42;100167.78;1712112;83;21006;-64
2022/03/05 01:07:17;;;;;;;;;;;;;;;-0.04;62.35;100168.87;1695296;83;21058;-64
2022/03/05 01:09:45;;;;;;;;;;;;;;;-0.01;62.13;100169.09;1672689;86;20481;-66
2022/03/05 01:12:12;;;;;;;1.70;1.57;;;;;;;-0.10;62.40;100161.48;1642370;85;20103;-64
2022/03/05 01:14:41;;;;;;;1.53;1.30;;;;;;;-0.16;62.49;100164.60;1647482;86;21594;-65
2022/03/05 01:17:08;;;;;;;1.52;1.42;;;;;;;-0.22;62.52;100159.37;1695898;82;20968;-67
2022/03/05 01:19:35;;;;;;;1.70;1.60;;;;;;;-0.17;62.45;100164.72;1724029;82;21003;-67
2022/03/05 01:22:03;;;;;;;1.73;1.63;;;;;;;-0.20;62.52;100161.39;1697848;82;21090;-67
2022/03/05 01:24:32;;;;;;;2.57;1.43;;;;;;;-0.17;62.68;100164.72;1705845;83;21178;-64
2022/03/05 01:26:59;;;;;;;1.73;1.63;;;;;;;-0.15;62.64;100162.36;1712229;83;21037;-66
2022/03/05 01:29:27;;;;;;;1.85;1.70;;;;;;;-0.08;62.59;100166.12;1712224;83;21071;-65
2022/03/05 01:31:53;;;;;;;1.37;1.10;;;;;;;-0.04;62.58;100165.39;1712209;83;20990;-65
2022/03/05 01:34:20;;;;;;;0.90;0.75;;;;;;;-0.02;62.18;100160.41;1697367;84;21047;-65
2022/03/05 01:36:47;;;;;;;1.40;1.30;;;;;;;-0.06;62.09;100155.06;1715941;83;21031;-64
2022/03/05 01:39:14;;;;;;;;;;;;;;;-0.01;62.06;100169.09;1714595;83;21098;-65
2022/03/05 01:41:41;;;;;;;2.20;1.42;;;;;;;-0.05;62.23;100167.68;1712310;83;20115;-64
2022/03/05 01:44:09;;;;;;;0.90;0.87;;;;;;;-0.17;62.57;100169.50;1711646;83;21094;-67
2022/03/05 01:46:38;;;;;;;1.80;1.53;;;;;;;-0.14;62.46;100160.55;1712169;83;21046;-66
2022/03/05 01:49:09;;;;;;;1.70;1.60;;;;;;;-0.23;62.61;100166.91;1707958;83;21015;-64
2022/03/05 01:51:37;;;;;;;1.23;0.90;;;;;;;-0.23;62.77;100161.66;1702892;83;21043;-65
2022/03/05 01:54:05;;;;;;;1.17;1.10;;;;;;;-0.25;62.94;100163.55;1712315;83;21026;-64
2022/03/05 01:56:32;;;;;;;1.40;1.07;;;;;;;-0.21;62.80;100170.23;1720876;83;20983;-64
2022/03/05 01:59:00;;;;;;;1.47;1.00;;;;;;;-0.25;62.88;100170.09;1717762;83;21099;-67
2022/03/05 02:01:28;;;;;;;1.47;0.70;;;;;;;-0.17;62.68;100162.95;1724297;83;21007;-64
2022/03/05 02:03:56;;;;;;;0.93;0.63;;;;;;;-0.15;62.64;100161.50;1724426;82;21378;-67
2022/03/05 02:06:24;;;;;;;1.97;0.87;;;;;;;-0.20;62.61;100157.47;1712018;83;20988;-69
2022/03/05 02:08:57;;;;;;;1.30;1.13;;;;;;;-0.08;62.47;100166.12;1705748;82;21076;-65
2022/03/05 02:11:25;;;;;;;0.97;0.87;;;;;;;-0.08;62.42;100171.84;1707016;82;21736;-66
2022/03/05 02:13:54;;;;;;;2.33;0.57;;;;;;;-0.09;62.36;100167.09;1694216;83;21551;-64
2022/03/05 02:16:22;;;;;;;1.20;1.10;;;;;;;-0.10;62.48;100171.96;1711774;82;21401;-78
2022/03/05 02:18:52;;;;;;;2.83;0.67;;;;;;;-0.14;62.68;100169.23;1710912;82;21034;-66
2022/03/05 02:21:21;;;;;;;1.27;0.90;;;;;;;-0.10;62.53;100178.52;1700361;83;21524;-68
2022/03/05 02:23:47;;;;;;;1.63;1.07;;;;;;;-0.09;62.63;100174.12;1718220;83;21118;-65
2022/03/05 02:26:15;;;;;;;1.40;1.30;;;;;;;-0.11;62.46;100185.21;1716081;83;21022;-64
2022/03/05 02:28:42;;;;;;;;;;;;;;;-0.08;62.42;100179.22;1716848;83;20980;-71
2022/03/05 02:31:09;;;;;;;0.90;0.90;;;;;;;-0.11;62.58;100177.35;1704026;82;20146;-64
2022/03/05 02:33:36;;;;;;;1.13;0.80;;;;;;;-0.16;62.78;100182.13;1687925;82;21098;-69
2022/03/05 02:36:05;;;;;;;0.98;0.98;;;;;;;-0.15;63.00;100182.45;1697576;83;21629;-66
2022/03/05 02:38:32;;;;;;;0.67;0.67;;;;;;;-0.15;63.14;100183.77;1715293;83;21087;-64
2022/03/05 02:40:58;;;;;;;0.80;0.80;;;;;;;-0.12;63.15;100180.42;1711373;83;21590;-64
2022/03/05 02:43:26;;;;;;;1.55;1.35;;;;;;;-0.05;63.33;100183.40;1711389;83;21093;-67
2022/03/05 02:45:53;;;;;;;1.07;0.80;;;;;;;-0.04;63.09;100181.12;1691336;83;21022;-65
2022/03/05 02:48:22;;;;;;;1.77;1.57;;;;;;;-0.04;63.12;100187.21;1711304;83;21010;-65
2022/03/05 02:50:51;;;;;;;1.00;1.00;;;;;;;-0.04;63.13;100187.67;1717433;82;20975;-66
2022/03/05 02:53:18;;;;;;;1.27;1.17;;;;;;;-0.03;63.17;100191.97;1712313;82;21544;-67
2022/03/05 02:55:47;;;;;;;1.17;1.07;;;;;;;-0.03;63.23;100190.17;1713146;82;21585;-64
2022/03/05 02:58:14;;;;;;;1.47;1.37;;;;;;;-0.06;63.54;100189.13;1711222;83;21346;-64
2022/03/05 03:00:42;;;;;;;1.40;1.20;;;;;;;-0.02;63.54;100194.92;1694038;83;21546;-64
2022/03/05 03:03:09;;;;;;;1.00;0.87;;;;;;;-0.06;63.60;100194.37;1700988;83;21053;-67
2022/03/05 03:05:36;;;;;;;1.30;1.20;;;;;;;-0.07;63.72;100194.48;1711130;83;21536;-65
2022/03/05 03:08:04;;;;;;;1.20;1.10;;;;;;;-0.06;63.73;100196.13;1717912;83;21055;-68
2022/03/05 03:10:31;;;;;;;1.67;1.57;;;;;;;-0.07;63.85;100200.55;1684000;83;21022;-65
2022/03/05 03:12:58;;;;;;;2.83;1.10;;;;;;;-0.04;63.83;100199.46;1710889;83;21116;-69
2022/03/05 03:15:25;;;;;;;2.00;1.90;;;;;;;-0.06;64.01;100196.13;1710941;83;21089;-67
2022/03/05 03:17:53;;;;;;;1.27;1.13;;;;;;;-0.04;64.09;100203.39;1710594;83;21025;-66
2022/03/05 03:20:25;;;;;;;1.50;1.40;;;;;;;-0.01;64.05;100200.05;1710470;83;21034;-64
2022/03/05 03:22:54;;;;;;;1.73;1.63;;;;;;;0.03;63.91;100202.43;1711819;83;21037;-72
2022/03/05 03:25:22;;;;;;;2.00;1.60;;;;;;;0.07;63.87;100202.53;1708557;83;21002;-65
2022/03/05 03:27:50;;;;;;;1.20;1.07;;;;;;;0.07;63.87;100211.22;1685788;83;21339;-66
2022/03/05 03:30:18;;;;;;;1.57;1.47;;;;;;;0.09;63.87;100217.66;1711067;83;21054;-65
2022/03/05 03:32:46;;;;;;;1.37;1.10;;;;;;;0.11;63.85;100214.43;1710583;83;21046;-65
2022/03/05 03:35:15;;;;;;;2.37;2.00;;;;;;;0.13;63.97;100211.20;1710769;83;21600;-65
2022/03/05 03:37:43;;;;;;;1.50;1.40;;;;;;;0.18;63.72;100214.30;1712076;83;21564;-67
2022/03/05 03:40:13;;;;;;;1.83;1.73;;;;;;;0.13;63.68;100219.92;1711057;83;21105;-64
2022/03/05 03:42:40;;;;;;;1.77;1.27;;;;;;;0.12;63.79;100222.17;1718569;83;21586;-69
2022/03/05 03:45:09;;;;;;;2.33;2.13;;;;;;;0.09;63.99;100227.66;1722929;82;20983;-65
2022/03/05 03:47:36;;;;;;;1.80;1.70;;;;;;;0.09;63.77;100226.34;1723296;83;21094;-65
2022/03/05 03:50:06;;;;;;;1.93;1.83;;;;;;;0.08;63.96;100225.18;1712596;82;21042;-64
2022/03/05 03:52:34;;;;;;;1.60;1.50;;;;;;;0.10;63.90;100221.95;1710952;83;21121;-64
2022/03/05 03:55:03;;;;;;;2.10;1.97;;;;;;;0.13;64.03;100226.48;1710986;83;21182;-64
2022/03/05 03:57:30;;;;;;;1.93;1.57;;;;;;;0.12;64.09;100214.31;1710633;83;21021;-64
2022/03/05 03:59:58;;;;;;;4.47;1.63;;;;;;;0.13;64.21;100219.06;1702001;83;20991;-66
2022/03/05 04:02:25;;;;;;;2.57;2.37;;;;;;;0.13;64.23;100220.37;1693703;83;22233;-70
2022/03/05 04:04:52;;;;;;;5.70;1.10;;;;;;;0.14;64.22;100224.67;1711816;83;21038;-65
2022/03/05 04:10:07;;;;;;;1.65;1.47;;;;;;;0.11;64.15;100228.84;1709785;83;21099;-68
2022/03/05 04:12:35;;;;;;;1.23;1.13;;;;;;;0.10;64.25;100234.58;1691859;83;21033;-66
2022/03/05 04:15:04;;;;;;;1.77;1.43;;;;;;;0.08;64.32;100240.91;1710972;83;21565;-66
2022/03/05 04:17:34;;;;;;;1.13;0.93;;;;;;;0.09;64.20;100233.38;1710966;83;21113;-64
2022/03/05 04:20:05;;;;;;;1.40;1.30;;;;;;;0.07;64.38;100240.54;1693273;83;21058;-64
2022/03/05 04:22:34;;;;;;;1.00;0.83;;;;;;;0.05;64.27;100238.03;1710803;83;21045;-68
2022/03/05 04:25:02;;;;;;;1.20;1.10;;;;;;;0.05;64.17;100245.89;1710757;83;21061;-65
2022/03/05 04:27:29;;;;;;;1.57;0.73;;;;;;;0.06;64.18;100250.20;1709852;83;21355;-68
2022/03/05 04:29:58;;;;;;;0.63;0.63;;;;;;;0.03;64.11;100244.36;1712805;83;20976;-64
2022/03/05 04:32:24;;;;;;;1.03;1.03;;;;;;;0.07;64.12;100249.22;1706337;82;21026;-64
2022/03/05 04:34:52;;;;;;;0.83;0.70;;;;;;;0.07;64.16;100246.60;1701985;83;21077;-69
2022/03/05 04:37:18;;;;;;;1.00;1.00;;;;;;;0.08;63.81;100250.91;1694484;83;21054;-65
2022/03/05 04:39:45;;;;;;;0.93;0.93;;;;;;;0.08;63.98;100258.77;1711596;83;21047;-66
2022/03/05 04:42:13;;;;;;;0.77;0.77;;;;;;;0.11;64.01;100262.44;1715740;83;21336;-65
2022/03/05 04:44:41;;;;;;;0.50;0.50;;;;;;;0.14;63.70;100263.51;1685529;83;21039;-64
2022/03/05 04:47:08;;;;;;;0.90;0.70;;;;;;;0.14;63.55;100266.12;1677535;84;21118;-70
2022/03/05 04:49:35;;;;;;;0.57;0.57;;;;;;;0.14;63.54;100267.44;1711229;82;21965;-66
2022/03/05 04:52:01;;;;;;;1.12;1.12;;;;;;;0.13;63.58;100271.48;1710893;83;21494;-67
2022/03/05 04:54:30;;;;;;;0.60;0.60;;;;;;;0.15;63.56;100274.36;1710709;83;21121;-69
2022/03/05 04:56:57;;;;;;;0.53;0.50;;;;;;;0.17;63.49;100275.52;1710960;83;21033;-66
2022/03/05 04:59:24;;;;;;;0.50;0.37;;;;;;;0.19;63.27;100279.70;1710816;83;21371;-71
2022/03/05 05:01:52;;;;;;;;;;;;;;;0.13;63.18;100278.05;1686573;83;21125;-68
2022/03/05 05:04:19;;;;;;;0.60;0.40;;;;;;;0.17;63.23;100284.70;1711169;83;20096;-64
2022/03/05 05:06:46;;;;;;;0.77;0.77;;;;;;;0.13;63.22;100295.08;1710930;83;21101;-64
2022/03/05 05:09:13;;;;;;;0.80;0.80;;;;;;;0.16;63.25;100294.84;1711434;83;21513;-64
2022/03/05 05:11:41;;;;;;;1.00;0.40;;;;;;;0.19;63.19;100295.92;1710994;83;21013;-64
2022/03/05 05:14:10;;;;;;;0.60;0.60;;;;;;;0.16;63.19;100296.98;1717352;83;21088;-64
2022/03/05 05:16:38;;;;;;;0.30;0.30;;;;;;;0.16;63.24;100298.30;1704651;83;21151;-64
2022/03/05 05:21:59;;;;;;;0.70;0.47;;;;;;;0.18;62.99;100309.97;1697406;83;21539;-64
2022/03/05 05:24:29;;;;;;;0.80;0.40;;;;;;;0.17;62.72;100317.02;1696906;83;20992;-68
2022/03/05 05:26:57;;;;;;;0.50;0.50;;;;;;;0.18;62.70;100316.52;1691361;83;21041;-66
2022/03/05 05:29:24;;;;;;;0.50;0.50;;;;;;;0.18;62.83;100317.84;1711081;83;21082;-64
2022/03/05 05:31:51;;;;;;;1.00;0.90;;;;;;;0.18;62.98;100317.35;1710901;83;21093;-66
2022/03/05 05:34:18;;;;;;;0.70;0.70;;;;;;;0.19;62.81;100325.58;1711078;83;21062;-64
2022/03/05 05:36:45;;;;;;;0.70;0.50;;;;;;;0.19;62.66;100323.45;1710896;83;21473;-68
2022/03/05 05:39:13;;;;;;;0.43;0.30;;;;;;;0.17;62.51;100326.19;1711056;83;21105;-67
2022/03/05 05:41:46;;;;;;;0.50;0.50;;;;;;;0.20;62.56;100330.34;1710733;83;22209;-68
2022/03/05 05:44:13;;;;;;;0.60;0.50;;;;;;;0.15;62.51;100317.61;1710810;83;21092;-64
2022/03/05 05:46:40;;;;;;;0.80;0.60;;;;;;;0.16;62.59;100329.75;1710680;83;21681;-66
2022/03/05 05:49:07;;;;;;;2.72;0.55;;;;;;;0.18;62.66;100326.52;1707503;83;21016;-71
2022/03/05 05:51:35;;;;;;;0.73;0.57;;;;;;;0.24;62.55;100325.69;1702068;83;21594;-67
2022/03/05 05:54:03;;;;;;;0.60;0.60;;;;;;;0.24;62.31;100332.24;1684665;83;21203;-66
2022/03/05 05:56:31;;;;;;;1.53;0.50;;;;;;;0.24;62.74;100334.38;1695840;83;21653;-64
2022/03/05 05:58:58;;;;;;;;;;;;;;;0.26;62.51;100326.40;1726054;83;21539;-64
2022/03/05 06:01:25;;;;;;;1.87;0.80;;;;;;;0.24;62.46;100338.31;1713103;82;20123;-65
2022/03/05 06:03:53;;;;;;;0.50;0.50;;;;;;;0.23;62.42;100339.73;1723230;83;21594;-65
2022/03/05 06:06:21;;;;;;;0.50;0.47;;;;;;;0.20;62.53;100340.83;1723160;83;21004;-65
2022/03/05 06:08:50;;;;;;;0.60;0.43;;;;;;;0.20;62.39;100340.83;1711083;83;21039;-71
2022/03/05 06:11:18;;;;;;;0.77;0.60;;;;;;;0.22;62.45;100348.58;1685692;83;21123;-65
2022/03/05 06:13:45;;;;;;;0.70;0.70;;;;;;;0.23;62.15;100344.98;1714360;83;21079;-68
2022/03/05 06:16:12;;;;;;;0.40;0.40;;;;;;;0.23;61.97;100351.08;1682420;83;21051;-68
2022/03/05 06:18:40;;;;;;;0.53;0.53;;;;;;;0.28;61.97;100354.64;1703748;82;21073;-66
2022/03/05 06:21:07;;;;;;;0.33;0.33;;;;;;;0.28;61.75;100357.26;1719014;83;20956;-65
2022/03/05 06:23:36;;;;;;;0.40;0.30;;;;;;;0.29;61.61;100366.80;1700028;84;21110;-66
2022/03/05 06:26:02;;;;;;;0.60;0.40;;;;;;;0.25;61.81;100362.28;1702131;83;21065;-65
2022/03/05 06:28:30;;;;;;;0.40;0.37;;;;;;;0.24;61.84;100366.33;1694392;83;22039;-72
2022/03/05 06:30:56;;;;;;;;;;;;;;;0.26;61.82;100367.86;1718120;82;22237;-65
2022/03/05 06:33:23;;;;;;;0.30;0.30;;;;;;;0.30;62.00;100378.94;1719351;83;20592;-65
2022/03/05 06:35:50;;;;;;;0.85;0.80;;;;;;;0.29;61.32;100374.67;1717194;83;21071;-75
2022/03/05 06:38:16;;;;;;;0.70;0.70;;;;;;;0.37;61.29;100380.13;1705313;83;21579;-65
2022/03/05 06:40:44;;;;;;;;;;;;;;;0.42;60.77;100384.55;1694909;83;20994;-64
2022/03/05 06:43:11;;;;;;;;;;;;;;;0.49;60.67;100381.80;1721913;83;20159;-66
2022/03/05 06:45:38;;;;;;;1.52;0.50;;;;;;;0.49;60.57;100381.80;1694376;82;20124;-66
2022/03/05 06:50:21;;;;;;;0.90;0.20;;;;;;;0.56;60.19;100384.26;1818711;78;22953;-66
2022/03/05 06:52:48;;;;;;;0.60;0.50;;;;;;;0.53;60.26;100392.39;1794808;80;20992;-63
2022/03/05 06:55:16;;;;;;;0.85;0.30;;;;;;;0.51;60.03;100402.17;1788265;80;21909;-71
2022/03/05 06:57:45;;;;;;;1.07;0.30;;;;;;;0.51;59.85;100395.62;1757478;81;21086;-64
2022/03/05 07:00:14;;;;;;;1.27;0.40;;;;;;;0.47;60.28;100402.06;1704171;83;21539;-65
2022/03/05 07:02:42;;;;;;;0.50;0.50;;;;;;;0.51;60.33;100390.38;1713523;83;21391;-66
2022/03/05 07:05:10;;;;;;;0.37;0.30;;;;;;;0.55;60.05;100393.09;1685284;83;21064;-64
2022/03/05 07:07:37;;;;;;;3.33;0.50;;;;;;;0.63;60.03;100393.80;1730329;83;21038;-65
2022/03/05 07:10:06;;;;;;;1.60;0.40;;;;;;;0.68;59.64;100396.04;1695016;84;21134;-64
2022/03/05 07:12:35;;;;;;;0.67;0.67;;;;;;;0.65;59.12;100393.19;1679012;83;21504;-65
2022/03/05 07:15:03;;;;;;;1.17;0.50;;;;;;;0.65;59.46;100400.23;1706628;83;21002;-65
2022/03/05 07:17:29;;;;;;;0.57;0.30;;;;;;;0.64;59.51;100402.03;1700862;83;21074;-65
2022/03/05 07:19:56;;;;;;;0.73;0.27;;;;;;;0.68;59.23;100398.20;1710260;83;21061;-71
2022/03/05 07:22:23;;;;;;;0.40;0.40;;;;;;;0.68;59.06;100404.77;1719461;83;21233;-64
2022/03/05 07:24:51;;;;;;;0.78;0.40;;;;;;;0.74;59.00;100407.38;1707409;83;21331;-70
2022/03/05 07:27:18;;;;;;;0.57;0.40;;;;;;;0.70;58.76;100411.20;1723876;83;21078;-65
2022/03/05 07:29:46;;;;;;;0.57;0.30;;;;;;;0.72;58.93;100412.74;1693586;83;21233;-66
2022/03/05 07:32:14;;;;;;;1.00;0.40;;;;;;;0.73;58.97;100412.25;1711558;83;21017;-66
2022/03/05 07:34:40;;;;;;;;;;;;;;;0.81;58.88;100416.43;1720738;83;21562;-65
2022/03/05 07:37:07;;;;;;;0.57;0.40;;;;;;;0.87;58.65;100419.86;1717270;82;20113;-65
2022/03/05 07:39:34;;;;;;;0.37;0.20;;;;;;;0.94;58.62;100415.80;1683715;82;21479;-66
2022/03/05 07:42:01;;;;;;;;;;;;;;;1.01;58.72;100415.28;1739301;81;21502;-66
2022/03/05 07:44:28;;;;;;;0.60;0.30;;;;;;;1.07;57.54;100420.03;1717034;81;20110;-66
2022/03/05 07:46:55;;;;;;;0.90;0.73;;;;;;;1.00;57.73;100421.02;1713862;81;21033;-66
2022/03/05 07:49:21;;;;;;;0.90;0.62;;;;;;;0.95;57.71;100411.37;1719889;82;21056;-65
2022/03/05 07:51:48;;;;;;;1.95;0.88;;;;;;;0.93;57.77;100413.28;1693326;82;21274;-65
2022/03/05 07:54:14;;;;;;;;;;;;;;;0.99;57.76;100408.84;1724586;80;21018;-68
2022/03/05 07:56:41;;;;;;;1.80;0.40;;;;;;;1.06;57.84;100411.81;1773673;80;20127;-66
2022/03/05 07:59:08;;;;;;;5.78;0.78;;;;;;;1.04;57.03;100420.30;1749322;80;21506;-65
2022/03/05 08:01:34;;;;;;;0.40;0.40;;;;;;;1.03;57.08;100412.88;1747753;80;21312;-71
2022/03/05 08:04:01;;;;;;;0.40;0.40;;;;;;;0.72;57.13;100362.06;1735092;80;21058;-67
2022/03/05 08:06:28;;;;;;;0.60;0.60;;;;;;;1.07;57.21;100414.78;1730384;80;21052;-66
2022/03/05 08:08:58;;;;;;;0.70;0.40;;;;;;;1.12;57.42;100419.19;1755946;80;21481;-65
2022/03/05 08:11:25;;;;;;;0.20;0.20;;;;;;;1.15;57.46;100416.31;1786414;80;21525;-65
2022/03/05 08:13:52;;;;;;;1.07;0.60;;;;;;;1.14;57.08;100419.89;1748361;80;21013;-66
2022/03/05 08:16:19;;;;;;;0.60;0.60;;;;;;;1.17;57.41;100422.27;1736404;80;21046;-65
2022/03/05 08:18:45;;;;;;;0.40;0.30;;;;;;;1.24;57.54;100431.29;1761269;80;21552;-65
2022/03/05 08:21:13;;;;;;;0.20;0.13;;;;;;;1.36;57.20;100434.23;1778969;80;21073;-66
2022/03/05 08:23:41;;;;;;;0.30;0.20;;;;;;;1.39;56.48;100431.00;1763498;80;21026;-71
2022/03/05 08:26:13;;;;;;;0.57;0.20;;;;;;;1.42;56.25;100434.70;1779491;80;20991;-64
2022/03/05 08:28:37;;;;;;;0.50;0.30;;;;;;;1.36;56.09;100425.53;1723016;80;21444;-72
2022/03/05 08:31:04;;;;;;;0.60;0.30;;;;;;;1.38;56.52;100431.49;1770512;80;20947;-65
2022/03/05 08:33:31;;;;;;;1.30;0.40;;;;;;;1.40;56.49;100432.19;1779791;80;21576;-69
2022/03/05 08:35:58;;;;;;;0.30;0.23;;;;;;;1.43;56.20;100430.64;1761015;80;20975;-65
2022/03/05 08:38:25;;;;;;;0.60;0.40;;;;;;;1.43;56.02;100436.34;1745241;80;21500;-66
2022/03/05 08:40:52;;;;;;;0.53;0.30;;;;;;;1.43;56.35;100439.83;1748551;80;21072;-68
2022/03/05 08:43:19;;;;;;;0.30;0.30;;;;;;;1.47;56.07;100441.70;1741141;80;21038;-65
2022/03/05 08:45:46;;;;;;;0.20;0.10;;;;;;;1.51;55.94;100438.70;1772966;80;21042;-66
2022/03/05 08:48:14;;;;;;;0.47;0.30;;;;;;;1.56;56.10;100435.69;1759926;80;20995;-66
2022/03/05 08:50:41;;;;;;;4.30;0.70;;;;;;;1.57;55.26;100440.48;1743018;80;21083;-65
2022/03/05 08:53:08;;;;;;;0.42;0.20;;;;;;;1.57;55.51;100446.56;1786686;80;21006;-66
2022/03/05 08:55:35;;;;;;;0.70;0.30;;;;;;;1.60;55.07;100447.63;1756211;80;21083;-68
2022/03/05 08:58:03;;;;;;;0.97;0.30;;;;;;;1.49;54.98;100442.44;1733335;80;21141;-73
2022/03/05 09:00:30;;;;;;;0.40;0.20;;;;;;;1.61;55.25;100455.84;1732917;80;21091;-65
2022/03/05 09:02:57;;;;;;;0.50;0.30;;;;;;;1.63;55.40;100457.87;1705030;82;21112;-65
2022/03/05 09:05:24;;;;;;;0.75;0.23;;;;;;;1.69;55.11;100463.09;1722731;82;21505;-65
2022/03/05 09:07:51;;;;;;;0.60;0.50;;;;;;;1.68;54.96;100470.64;1706412;82;21512;-71
2022/03/05 09:10:18;;;;;;;1.17;0.53;;;;;;;1.62;54.78;100461.47;1750344;82;21045;-65
2022/03/05 09:12:45;;;;;;;0.47;0.30;;;;;;;1.55;54.89;100466.38;1755169;82;21062;-65
2022/03/05 09:15:12;;;;;;;1.17;0.33;;;;;;;1.49;55.04;100469.53;1748266;82;21569;-64
2022/03/05 09:17:40;;;;;;;0.73;0.23;;;;;;;1.48;55.03;100468.33;1699039;82;21147;-72
2022/03/05 09:20:09;;;;;;;0.30;0.30;;;;;;;1.44;55.24;100480.06;1705316;82;21028;-65
2022/03/05 09:22:39;;;;;;;0.30;0.30;;;;;;;1.47;55.11;100474.53;1700423;83;21055;-65
2022/03/05 09:25:08;;;;;;;0.50;0.30;;;;;;;1.47;55.04;100478.02;1716809;82;21077;-65
2022/03/05 09:27:35;;;;;;;0.60;0.20;;;;;;;1.51;55.27;100481.23;1710258;83;21034;-68
2022/03/05 09:30:04;;;;;;;0.30;0.30;;;;;;;1.54;55.37;100482.27;1737053;82;21577;-66
2022/03/05 09:32:32;;;;;;;1.13;0.60;;;;;;;1.62;54.66;100486.44;1718399;82;21020;-70
2022/03/05 09:34:59;;;;;;;0.30;0.30;;;;;;;1.61;54.21;100486.06;1718297;82;21587;-64
2022/03/05 09:37:28;;;;;;;0.20;0.10;;;;;;;1.53;54.79;100490.64;1710027;83;21030;-65
2022/03/05 09:39:56;;;;;;;0.33;0.13;;;;;;;1.48;55.09;100486.72;1723759;82;21045;-65
2022/03/05 09:42:23;;;;;;;0.20;0.17;;;;;;;1.41;55.36;100486.38;1755303;82;21097;-67
2022/03/05 09:44:49;;;;;;;0.43;0.43;;;;;;;1.40;55.31;100480.78;1754719;82;21043;-67
2022/03/05 09:47:21;;;;;;;0.60;0.43;;;;;;;1.42;55.72;100478.87;1697180;83;21090;-65
2022/03/05 09:49:48;;;;;;;0.33;0.20;;;;;;;1.45;55.55;100488.28;1720564;82;21098;-68
2022/03/05 09:52:16;;;;;;;1.30;0.57;;;;;;;1.50;55.51;100491.37;1744825;82;21059;-66
2022/03/05 09:54:45;;;;;;;0.23;0.20;;;;;;;1.47;55.18;100485.04;1704670;83;22208;-71
2022/03/05 09:57:14;;;;;;;0.33;0.30;;;;;;;1.47;55.29;100485.90;1691912;82;21531;-66
2022/03/05 09:59:41;;;;;;;0.33;0.20;;;;;;;1.47;55.19;100487.67;1685809;82;21019;-66
2022/03/05 10:02:09;;;;;;;1.43;0.27;;;;;;;1.51;55.21;100489.94;1700170;81;21538;-65
2022/03/05 10:04:39;;;;;;;0.63;0.40;;;;;;;1.49;55.19;100493.17;1674287;84;21079;-65
2022/03/05 10:07:17;;;;;;;0.63;0.30;;;;;;;1.58;55.29;100490.73;1688039;84;21074;-67
2022/03/05 10:09:47;;;;;;;0.30;0.20;;;;;;;1.58;55.12;100491.56;1686695;83;21514;-67
2022/03/05 10:12:32;;;;;;;0.87;0.20;;;;;;;1.59;55.00;100494.56;1677408;82;21115;-65
2022/03/05 10:15:18;;;;;;;0.40;0.30;;;;;;;1.60;54.95;100500.64;1673407;82;21123;-69
2022/03/05 10:17:54;;;;;;;0.30;0.10;;;;;;;1.60;54.85;100498.01;1669760;84;21119;-68
2022/03/05 10:20:25;;;;;;;0.83;0.30;;;;;;;1.55;55.04;100499.72;1713471;82;21140;-65
2022/03/05 10:23:10;;;;;;;0.20;0.20;;;;;;;1.50;54.99;100492.69;1713024;82;21070;-70
2022/03/05 10:25:45;;;;;;;0.60;0.30;;;;;;;1.49;55.25;100487.09;1710789;82;21087;-66
2022/03/05 10:28:23;;;;;;;0.40;0.40;;;;;;;1.48;55.45;100491.98;1707872;82;21072;-69
2022/03/05 10:30:58;;;;;;;1.00;0.37;;;;;;;1.54;55.68;100496.72;1689296;82;21040;-65
2022/03/05 10:33:32;;;;;;;1.13;0.50;;;;;;;1.59;55.80;100491.93;1691739;82;21326;-71
2022/03/05 10:36:04;;;;;;;1.83;0.50;;;;;;;1.64;56.08;100485.82;1700949;82;21088;-65
2022/03/05 10:38:50;;;;;;;0.70;0.50;;;;;;;1.65;55.93;100491.91;1685111;82;21044;-67
2022/03/05 10:41:24;;;;;;;0.83;0.43;;;;;;;1.65;55.92;100482.22;1682044;82;21113;-66
2022/03/05 10:44:15;;;;;;;0.87;0.40;;;;;;;1.62;56.02;100479.86;1679755;82;22203;-65
2022/03/05 10:47:02;;;;;;;0.30;0.20;;;;;;;1.65;55.91;100473.02;1695742;82;21575;-66
2022/03/05 10:49:36;;;;;;;0.80;0.60;;;;;;;1.64;56.24;100476.63;1708004;84;21610;-68
2022/03/05 10:52:08;;;;;;;1.47;0.70;;;;;;;1.71;56.27;100482.19;1710510;82;21051;-65
2022/03/05 10:54:43;;;;;;;0.97;0.50;;;;;;;1.71;56.47;100474.30;1706860;82;21059;-66
2022/03/05 10:57:19;;;;;;;0.93;0.33;;;;;;;1.73;56.53;100474.55;1708523;82;20983;-67
2022/03/05 10:59:51;;;;;;;0.50;0.30;;;;;;;1.67;56.60;100477.66;1702806;82;21090;-64
2022/03/05 11:02:21;;;;;;;0.53;0.53;;;;;;;1.69;56.95;100481.00;1690976;82;21546;-69
2022/03/05 11:04:50;;;;;;;1.70;0.70;;;;;;;1.70;56.96;100487.11;1659780;83;21058;-68
2022/03/05 11:07:24;;;;;;;0.60;0.60;;;;;;;1.68;57.26;100483.78;1657361;83;21015;-65
2022/03/05 11:09:54;;;;;;;0.33;0.33;;;;;;;1.68;57.17;100487.72;1678977;83;21058;-65
2022/03/05 11:12:24;;;;;;;0.63;0.50;;;;;;;1.67;57.30;100487.35;1702254;83;21010;-65
2022/03/05 11:14:54;;;;;;;0.30;0.20;;;;;;;1.74;57.35;100491.14;1690295;83;21042;-65
2022/03/05 11:17:27;;;;;;;0.50;0.37;;;;;;;1.78;56.97;100484.66;1665701;84;21094;-65
2022/03/05 11:19:57;;;;;;;0.97;0.53;;;;;;;1.84;57.07;100487.27;1716224;82;21082;-66
2022/03/05 11:22:27;;;;;;;1.60;0.50;;;;;;;1.85;56.85;100486.31;1693352;82;21081;-67
2022/03/05 11:24:55;;;;;;;1.73;0.77;;;;;;;1.87;56.49;100484.39;1662081;84;21090;-66
2022/03/05 11:27:24;;;;;;;0.43;0.30;;;;;;;1.85;56.65;100484.52;1688419;83;20987;-69
2022/03/05 11:30:02;;;;;;;0.50;0.40;;;;;;;1.88;56.68;100484.23;1688771;83;22280;-72
2022/03/05 11:32:39;;;;;;;1.93;1.00;;;;;;;1.92;56.77;100481.73;1652479;87;21076;-71
2022/03/05 11:35:23;;;;;;;2.23;1.10;;;;;;;1.91;56.37;100465.59;1639439;83;21031;-66
2022/03/05 11:37:53;;;;;;;2.27;2.03;;;;;;;1.98;55.41;100478.20;1665059;85;21059;-65
2022/03/05 11:40:41;;;;;;;1.77;1.30;;;;;;;1.92;54.64;100480.41;1626374;85;21055;-65
2022/03/05 11:43:19;;;;;;;1.03;0.93;;;;;;;1.88;54.16;100476.35;1672656;84;21032;-69
2022/03/05 11:45:52;;;;;;;1.80;1.47;;;;;;;1.91;53.81;100485.30;1665295;85;21091;-64
2022/03/05 11:48:26;;;;;;;1.20;1.00;;;;;;;1.97;53.82;100484.45;1670141;84;21062;-68